Star Mariella — V7KK3 — position and weather

sailwx.info

Track history (hours):
 
Tides and Currents Weather Stations Pressure Air Temp Water Temp Dewpoint Dewpoint Depression Visibility Wind Speed Wind Dir Waves Ship Positions

Star Mariella

Last reported at 2016-Jan-18 22:12 UTC. Time now 2016-Feb-13 19:27 UTC.
Position N 01°11' E 103°39'.
Warning: this ship's position is 25 days out of date.

Length 229 m; draft 14.5 m.

Type: Ship. MMSI: 538002632.

Date/timePositionNaut miles runAvg speedWind from/ knotsBaromVisibWave heightAir tempDewpointWater temp
2016-Jan-18 22:12N 01°11' E 103°39'7 9.5
2016-Jan-18 21:30N 01°09' E 103°45'1212.2
2016-Jan-18 20:33N 01°14' E 103°56'4 3.3
2016-Jan-18 19:24N 01°17' E 103°58'0 0.1
2016-Jan-18 18:30N 01°17' E 103°58'0 0.0
2016-Jan-18 17:27N 01°17' E 103°58'0 0.0
2016-Jan-18 16:30N 01°17' E 103°58'0 0.0
2016-Jan-18 15:30N 01°17' E 103°58'0 0.0
2016-Jan-18 14:27N 01°17' E 103°58'0 0.0
2016-Jan-18 13:06N 01°17' E 103°58'0 0.1
2016-Jan-18 12:30N 01°17' E 103°58'0 0.1
2016-Jan-18 11:30N 01°17' E 103°58'0 0.1
2016-Jan-18 10:27N 01°17' E 103°58'0 0.1
2016-Jan-18 09:33N 01°17' E 103°58'0 0.0
2016-Jan-18 07:33N 01°17' E 103°58'0 0.1
2016-Jan-18 06:29N 01°17' E 103°58'2 1.8
2016-Jan-18 05:32N 01°16' E 103°60'6 5.8
2016-Jan-18 04:33N 01°17' E 104°06'  
Track history (hours):
 
Tides and Currents Weather Stations Pressure Air Temp Water Temp Dewpoint Dewpoint Depression Visibility Wind Speed Wind Dir Waves Ship Positions

Star Mariella

Last reported at 2016-Jan-18 22:12 UTC. Time now 2016-Feb-13 19:27 UTC.
Position N 01°11' E 103°39'.
Warning: this ship's position is 25 days out of date.

Length 229 m; draft 14.5 m.

Type: Ship. MMSI: 538002632.

Date/timePositionNaut miles runAvg speedWind from/ knotsBaromVisibWave heightAir tempDewpointWater temp
2016-Jan-18 22:12N 01°11' E 103°39'7 9.5
2016-Jan-18 21:30N 01°09' E 103°45'1212.2
2016-Jan-18 20:33N 01°14' E 103°56'4 3.3
2016-Jan-18 19:24N 01°17' E 103°58'0 0.1
2016-Jan-18 18:30N 01°17' E 103°58'0 0.0
2016-Jan-18 17:27N 01°17' E 103°58'0 0.0
2016-Jan-18 16:30N 01°17' E 103°58'0 0.0
2016-Jan-18 15:30N 01°17' E 103°58'0 0.0
2016-Jan-18 14:27N 01°17' E 103°58'0 0.0
2016-Jan-18 13:06N 01°17' E 103°58'0 0.1
2016-Jan-18 12:30N 01°17' E 103°58'0 0.1
2016-Jan-18 11:30N 01°17' E 103°58'0 0.1
2016-Jan-18 10:27N 01°17' E 103°58'0 0.1
2016-Jan-18 09:33N 01°17' E 103°58'0 0.0
2016-Jan-18 07:33N 01°17' E 103°58'0 0.1
2016-Jan-18 06:29N 01°17' E 103°58'2 1.8
2016-Jan-18 05:32N 01°16' E 103°60'6 5.8
2016-Jan-18 04:33N 01°17' E 104°06'  

Dump ship's entire track history